sensor_id;sensor_type;location;lat;lon;timestamp;pressure;altitude;pressure_sealevel;temperature;humidity
6778;BME280;3426;52.244;10.534;2023-03-19T00:00:19;100421.72;;;14.14;73.81
6778;BME280;3426;52.244;10.534;2023-03-19T00:02:46;100424.13;;;14.29;72.13
6778;BME280;3426;52.244;10.534;2023-03-19T00:05:17;100428.06;;;13.87;74.00
6778;BME280;3426;52.244;10.534;2023-03-19T00:07:44;100421.09;;;14.34;73.33
6778;BME280;3426;52.244;10.534;2023-03-19T00:10:10;100413.97;;;14.35;72.23
6778;BME280;3426;52.244;10.534;2023-03-19T00:12:37;100408.09;;;14.18;72.78
6778;BME280;3426;52.244;10.534;2023-03-19T00:15:04;100401.72;;;14.80;70.64
6778;BME280;3426;52.244;10.534;2023-03-19T00:17:32;100402.50;;;14.93;70.24
6778;BME280;3426;52.244;10.534;2023-03-19T00:19:59;100402.13;;;14.63;70.49
6778;BME280;3426;52.244;10.534;2023-03-19T00:22:25;100414.59;;;14.14;73.08
6778;BME280;3426;52.244;10.534;2023-03-19T00:24:52;100427.56;;;14.19;73.92
6778;BME280;3426;52.244;10.534;2023-03-19T00:27:18;100415.06;;;14.56;71.79
6778;BME280;3426;52.244;10.534;2023-03-19T00:29:45;100417.94;;;14.29;73.90
6778;BME280;3426;52.244;10.534;2023-03-19T00:32:11;100419.44;;;13.96;75.29
6778;BME280;3426;52.244;10.534;2023-03-19T00:34:38;100419.47;;;14.44;73.57
6778;BME280;3426;52.244;10.534;2023-03-19T00:37:05;100417.72;;;14.32;74.29
6778;BME280;3426;52.244;10.534;2023-03-19T00:39:31;100406.28;;;14.43;73.29
6778;BME280;3426;52.244;10.534;2023-03-19T00:41:58;100396.22;;;15.17;71.13
6778;BME280;3426;52.244;10.534;2023-03-19T00:44:24;100393.28;;;15.08;71.00
6778;BME280;3426;52.244;10.534;2023-03-19T00:46:58;100393.53;;;14.94;71.48
6778;BME280;3426;52.244;10.534;2023-03-19T00:49:24;100395.41;;;14.70;72.22
6778;BME280;3426;52.244;10.534;2023-03-19T00:51:51;100386.09;;;14.75;72.47
6778;BME280;3426;52.244;10.534;2023-03-19T00:54:17;100393.38;;;14.49;73.65
6778;BME280;3426;52.244;10.534;2023-03-19T00:56:44;100384.78;;;14.81;72.66
6778;BME280;3426;52.244;10.534;2023-03-19T00:59:10;100391.03;;;14.80;72.09
6778;BME280;3426;52.244;10.534;2023-03-19T01:01:40;100393.28;;;14.38;73.82
6778;BME280;3426;52.244;10.534;2023-03-19T01:04:06;100383.25;;;14.66;73.13
6778;BME280;3426;52.244;10.534;2023-03-19T01:06:33;100382.66;;;14.73;72.60
6778;BME280;3426;52.244;10.534;2023-03-19T01:08:59;100386.13;;;14.87;72.00
6778;BME280;3426;52.244;10.534;2023-03-19T01:11:26;100385.28;;;14.97;71.62
6778;BME280;3426;52.244;10.534;2023-03-19T01:13:53;100385.78;;;15.14;71.10
6778;BME280;3426;52.244;10.534;2023-03-19T01:16:19;100388.47;;;15.14;71.36
6778;BME280;3426;52.244;10.534;2023-03-19T01:18:46;100381.31;;;15.25;70.74
6778;BME280;3426;52.244;10.534;2023-03-19T01:21:12;100378.91;;;15.22;70.46
6778;BME280;3426;52.244;10.534;2023-03-19T01:23:39;100379.97;;;15.08;70.88
6778;BME280;3426;52.244;10.534;2023-03-19T01:26:06;100376.81;;;15.03;72.04
6778;BME280;3426;52.244;10.534;2023-03-19T01:28:33;100375.50;;;15.09;70.72
6778;BME280;3426;52.244;10.534;2023-03-19T01:31:00;100378.75;;;15.01;71.18
6778;BME280;3426;52.244;10.534;2023-03-19T01:33:28;100369.91;;;15.12;70.74
6778;BME280;3426;52.244;10.534;2023-03-19T01:35:54;100380.69;;;14.99;71.39
6778;BME280;3426;52.244;10.534;2023-03-19T01:38:21;100375.13;;;15.14;70.43
6778;BME280;3426;52.244;10.534;2023-03-19T01:40:47;100380.44;;;15.02;71.09
6778;BME280;3426;52.244;10.534;2023-03-19T01:43:19;100373.69;;;15.09;70.20
6778;BME280;3426;52.244;10.534;2023-03-19T01:45:49;100380.44;;;15.02;70.33
6778;BME280;3426;52.244;10.534;2023-03-19T01:48:41;100371.84;;;15.10;70.24
6778;BME280;3426;52.244;10.534;2023-03-19T01:51:10;100373.88;;;14.95;70.13
6778;BME280;3426;52.244;10.534;2023-03-19T01:53:39;100364.91;;;14.96;70.55
6778;BME280;3426;52.244;10.534;2023-03-19T01:58:45;100377.19;;;14.99;70.72
6778;BME280;3426;52.244;10.534;2023-03-19T02:01:13;100372.88;;;14.85;70.78
6778;BME280;3426;52.244;10.534;2023-03-19T02:03:40;100363.59;;;14.55;71.70
6778;BME280;3426;52.244;10.534;2023-03-19T02:06:09;100364.34;;;14.69;71.08
6778;BME280;3426;52.244;10.534;2023-03-19T02:08:37;100367.91;;;14.69;71.48
6778;BME280;3426;52.244;10.534;2023-03-19T02:11:04;100373.28;;;14.56;71.92
6778;BME280;3426;52.244;10.534;2023-03-19T02:13:33;100375.72;;;14.60;71.46
6778;BME280;3426;52.244;10.534;2023-03-19T02:15:59;100371.88;;;14.64;71.31
6778;BME280;3426;52.244;10.534;2023-03-19T02:18:29;100378.91;;;14.65;71.03
6778;BME280;3426;52.244;10.534;2023-03-19T02:21:08;100382.88;;;14.46;71.84
6778;BME280;3426;52.244;10.534;2023-03-19T02:26:16;100382.88;;;14.46;72.31
6778;BME280;3426;52.244;10.534;2023-03-19T02:28:47;100375.09;;;14.32;73.03
6778;BME280;3426;52.244;10.534;2023-03-19T02:31:16;100372.91;;;14.50;72.36
6778;BME280;3426;52.244;10.534;2023-03-19T02:33:44;100374.75;;;14.61;72.39
6778;BME280;3426;52.244;10.534;2023-03-19T02:36:16;100377.94;;;14.66;71.33
6778;BME280;3426;52.244;10.534;2023-03-19T02:38:50;100394.31;;;14.72;71.59
6778;BME280;3426;52.244;10.534;2023-03-19T02:41:18;100379.88;;;14.64;71.72
6778;BME280;3426;52.244;10.534;2023-03-19T02:43:45;100389.44;;;14.42;72.52
6778;BME280;3426;52.244;10.534;2023-03-19T02:46:12;100392.38;;;14.02;74.76
6778;BME280;3426;52.244;10.534;2023-03-19T02:48:38;100390.09;;;14.33;74.09
6778;BME280;3426;52.244;10.534;2023-03-19T02:51:06;100392.03;;;14.31;74.16
6778;BME280;3426;52.244;10.534;2023-03-19T02:53:33;100393.38;;;14.49;73.04
6778;BME280;3426;52.244;10.534;2023-03-19T02:56:01;100395.75;;;14.65;71.72
6778;BME280;3426;52.244;10.534;2023-03-19T02:58:27;100389.50;;;14.53;71.84
6778;BME280;3426;52.244;10.534;2023-03-19T03:00:53;100395.06;;;14.50;72.88
6778;BME280;3426;52.244;10.534;2023-03-19T03:03:20;100395.72;;;14.41;72.71
6778;BME280;3426;52.244;10.534;2023-03-19T03:05:46;100400.63;;;14.47;72.16
6778;BME280;3426;52.244;10.534;2023-03-19T03:08:13;100406.09;;;14.33;73.06
6778;BME280;3426;52.244;10.534;2023-03-19T03:10:39;100396.16;;;14.11;73.84
6778;BME280;3426;52.244;10.534;2023-03-19T03:13:06;100403.09;;;14.14;73.38
6778;BME280;3426;52.244;10.534;2023-03-19T03:15:32;100403.53;;;14.08;73.90
6778;BME280;3426;52.244;10.534;2023-03-19T03:17:59;100401.53;;;13.98;74.23
6778;BME280;3426;52.244;10.534;2023-03-19T03:20:26;100403.75;;;13.68;75.84
6778;BME280;3426;52.244;10.534;2023-03-19T03:22:52;100406.84;;;13.98;75.52
6778;BME280;3426;52.244;10.534;2023-03-19T03:25:19;100410.75;;;14.18;73.45
6778;BME280;3426;52.244;10.534;2023-03-19T03:27:49;100404.94;;;14.00;74.12
6778;BME280;3426;52.244;10.534;2023-03-19T03:30:16;100410.66;;;13.70;75.56
6778;BME280;3426;52.244;10.534;2023-03-19T03:32:42;100417.94;;;13.92;74.68
6778;BME280;3426;52.244;10.534;2023-03-19T03:35:09;100418.50;;;13.72;75.37
6778;BME280;3426;52.244;10.534;2023-03-19T03:37:36;100407.59;;;14.00;74.89
6778;BME280;3426;52.244;10.534;2023-03-19T03:40:04;100414.84;;;13.98;73.74
6778;BME280;3426;52.244;10.534;2023-03-19T03:42:35;100408.31;;;13.78;74.32
6778;BME280;3426;52.244;10.534;2023-03-19T03:45:06;100418.28;;;13.88;74.78
6778;BME280;3426;52.244;10.534;2023-03-19T03:47:32;100418.41;;;13.86;74.40
6778;BME280;3426;52.244;10.534;2023-03-19T03:49:59;100416.19;;;13.80;74.68
6778;BME280;3426;52.244;10.534;2023-03-19T03:52:25;100411.06;;;13.77;75.09
6778;BME280;3426;52.244;10.534;2023-03-19T03:54:59;100422.16;;;13.58;75.40
6778;BME280;3426;52.244;10.534;2023-03-19T03:57:26;100416.00;;;13.58;75.16
6778;BME280;3426;52.244;10.534;2023-03-19T03:59:53;100413.25;;;13.46;75.71
6778;BME280;3426;52.244;10.534;2023-03-19T04:02:19;100416.53;;;13.63;75.37
6778;BME280;3426;52.244;10.534;2023-03-19T04:04:47;100420.16;;;13.62;75.06
6778;BME280;3426;52.244;10.534;2023-03-19T04:07:14;100413.63;;;13.66;74.41
6778;BME280;3426;52.244;10.534;2023-03-19T04:09:40;100418.59;;;13.83;73.95
6778;BME280;3426;52.244;10.534;2023-03-19T04:12:07;100420.50;;;13.94;73.35
6778;BME280;3426;52.244;10.534;2023-03-19T04:14:34;100416.09;;;14.05;73.12
6778;BME280;3426;52.244;10.534;2023-03-19T04:17:00;100427.03;;;13.77;73.57
6778;BME280;3426;52.244;10.534;2023-03-19T04:19:27;100420.16;;;13.98;73.00
6778;BME280;3426;52.244;10.534;2023-03-19T04:21:53;100417.50;;;13.98;72.73
6778;BME280;3426;52.244;10.534;2023-03-19T04:24:20;100422.19;;;14.08;72.53
6778;BME280;3426;52.244;10.534;2023-03-19T04:26:50;100414.63;;;14.01;72.34
6778;BME280;3426;52.244;10.534;2023-03-19T04:29:17;100424.19;;;14.04;72.18
6778;BME280;3426;52.244;10.534;2023-03-19T04:31:44;100418.22;;;14.00;72.25
6778;BME280;3426;52.244;10.534;2023-03-19T04:34:11;100416.78;;;13.96;71.71
6778;BME280;3426;52.244;10.534;2023-03-19T04:36:38;100417.13;;;13.79;72.62
6778;BME280;3426;52.244;10.534;2023-03-19T04:39:07;100417.81;;;13.32;74.35
6778;BME280;3426;52.244;10.534;2023-03-19T04:41:34;100418.13;;;13.40;74.17
6778;BME280;3426;52.244;10.534;2023-03-19T04:44:01;100426.19;;;13.38;74.87
6778;BME280;3426;52.244;10.534;2023-03-19T04:46:27;100416.88;;;13.45;74.67
6778;BME280;3426;52.244;10.534;2023-03-19T04:48:54;100420.56;;;13.43;74.80
6778;BME280;3426;52.244;10.534;2023-03-19T04:51:21;100419.72;;;13.68;74.38
6778;BME280;3426;52.244;10.534;2023-03-19T04:53:50;100419.03;;;13.77;73.01
6778;BME280;3426;52.244;10.534;2023-03-19T04:56:17;100419.31;;;13.36;74.14
6778;BME280;3426;52.244;10.534;2023-03-19T04:58:44;100420.22;;;13.60;73.27
6778;BME280;3426;52.244;10.534;2023-03-19T05:01:11;100422.63;;;13.39;73.67
6778;BME280;3426;52.244;10.534;2023-03-19T05:03:38;100418.56;;;13.34;74.11
6778;BME280;3426;52.244;10.534;2023-03-19T05:06:04;100424.19;;;13.42;73.27
6778;BME280;3426;52.244;10.534;2023-03-19T05:08:31;100420.78;;;13.52;73.11
6778;BME280;3426;52.244;10.534;2023-03-19T05:10:58;100421.59;;;13.66;73.38
6778;BME280;3426;52.244;10.534;2023-03-19T05:13:24;100425.66;;;13.71;72.23
6778;BME280;3426;52.244;10.534;2023-03-19T05:15:54;100419.00;;;13.40;73.62
6778;BME280;3426;52.244;10.534;2023-03-19T05:18:21;100426.09;;;13.65;72.82
6778;BME280;3426;52.244;10.534;2023-03-19T05:20:56;100426.81;;;13.80;72.39
6778;BME280;3426;52.244;10.534;2023-03-19T05:23:23;100421.09;;;13.61;73.79
6778;BME280;3426;52.244;10.534;2023-03-19T05:25:50;100429.16;;;13.72;73.26
6778;BME280;3426;52.244;10.534;2023-03-19T05:28:17;100428.31;;;13.71;72.75
6778;BME280;3426;52.244;10.534;2023-03-19T05:30:43;100426.81;;;13.80;71.99
6778;BME280;3426;52.244;10.534;2023-03-19T05:33:10;100427.78;;;13.66;72.44
6778;BME280;3426;52.244;10.534;2023-03-19T05:35:37;100429.25;;;13.83;72.37
6778;BME280;3426;52.244;10.534;2023-03-19T05:38:04;100428.69;;;14.03;71.62
6778;BME280;3426;52.244;10.534;2023-03-19T05:40:31;100432.16;;;14.17;70.29
6778;BME280;3426;52.244;10.534;2023-03-19T05:43:00;100431.28;;;14.16;70.77
6778;BME280;3426;52.244;10.534;2023-03-19T05:45:27;100438.69;;;14.13;70.61
6778;BME280;3426;52.244;10.534;2023-03-19T05:47:53;100430.78;;;14.11;70.60
6778;BME280;3426;52.244;10.534;2023-03-19T05:50:20;100435.69;;;14.04;70.06
6778;BME280;3426;52.244;10.534;2023-03-19T05:52:50;100440.50;;;13.99;70.79
6778;BME280;3426;52.244;10.534;2023-03-19T05:55:16;100434.19;;;14.13;70.49
6778;BME280;3426;52.244;10.534;2023-03-19T05:57:43;100443.56;;;14.19;70.31
6778;BME280;3426;52.244;10.534;2023-03-19T06:00:11;100441.66;;;14.08;70.53
6778;BME280;3426;52.244;10.534;2023-03-19T06:02:38;100442.00;;;14.03;71.32
6778;BME280;3426;52.244;10.534;2023-03-19T06:05:05;100445.13;;;13.85;71.60
6778;BME280;3426;52.244;10.534;2023-03-19T06:07:32;100444.81;;;13.76;72.47
6778;BME280;3426;52.244;10.534;2023-03-19T06:09:58;100446.53;;;13.65;72.66
6778;BME280;3426;52.244;10.534;2023-03-19T06:12:25;100448.72;;;13.84;72.08
6778;BME280;3426;52.244;10.534;2023-03-19T06:14:51;100453.78;;;14.12;72.22
6778;BME280;3426;52.244;10.534;2023-03-19T06:17:18;100441.66;;;14.08;71.74
6778;BME280;3426;52.244;10.534;2023-03-19T06:22:32;100441.63;;;13.71;73.66
6778;BME280;3426;52.244;10.534;2023-03-19T06:24:58;100450.91;;;14.15;73.00
6778;BME280;3426;52.244;10.534;2023-03-19T06:27:25;100450.84;;;14.28;72.73
6778;BME280;3426;52.244;10.534;2023-03-19T06:29:51;100456.03;;;14.42;72.26
6778;BME280;3426;52.244;10.534;2023-03-19T06:32:17;100461.97;;;14.58;71.20
6778;BME280;3426;52.244;10.534;2023-03-19T06:34:44;100459.06;;;14.62;69.92
6778;BME280;3426;52.244;10.534;2023-03-19T06:37:10;100467.91;;;14.86;69.79
6778;BME280;3426;52.244;10.534;2023-03-19T06:39:37;100467.91;;;14.86;69.83
6778;BME280;3426;52.244;10.534;2023-03-19T06:42:04;100474.91;;;14.76;70.23
6778;BME280;3426;52.244;10.534;2023-03-19T06:44:31;100466.59;;;14.68;70.12
6778;BME280;3426;52.244;10.534;2023-03-19T06:46:57;100465.31;;;15.08;69.27
6778;BME280;3426;52.244;10.534;2023-03-19T06:49:24;100464.16;;;15.24;68.53
6778;BME280;3426;52.244;10.534;2023-03-19T06:51:50;100468.06;;;15.42;67.71
6778;BME280;3426;52.244;10.534;2023-03-19T06:54:17;100469.09;;;15.17;67.87
6778;BME280;3426;52.244;10.534;2023-03-19T06:56:43;100468.06;;;15.42;67.32
6778;BME280;3426;52.244;10.534;2023-03-19T06:59:11;100479.81;;;15.28;67.04
6778;BME280;3426;52.244;10.534;2023-03-19T07:01:41;100472.94;;;15.59;66.25
6778;BME280;3426;52.244;10.534;2023-03-19T07:04:08;100477.28;;;15.38;66.83
6778;BME280;3426;52.244;10.534;2023-03-19T07:09:10;100485.06;;;15.52;66.33
6778;BME280;3426;52.244;10.534;2023-03-19T07:11:36;100487.25;;;15.58;66.75
6778;BME280;3426;52.244;10.534;2023-03-19T07:14:03;100496.84;;;15.50;67.05
6778;BME280;3426;52.244;10.534;2023-03-19T07:16:30;100495.00;;;15.39;66.65
6778;BME280;3426;52.244;10.534;2023-03-19T07:18:56;100493.19;;;15.51;66.39
6778;BME280;3426;52.244;10.534;2023-03-19T07:21:23;100494.41;;;15.58;67.35
6778;BME280;3426;52.244;10.534;2023-03-19T07:23:49;100514.34;;;15.19;68.05
6778;BME280;3426;52.244;10.534;2023-03-19T07:26:18;100512.44;;;15.67;66.60
6778;BME280;3426;52.244;10.534;2023-03-19T07:28:44;100518.28;;;15.48;67.40
6778;BME280;3426;52.244;10.534;2023-03-19T07:31:11;100506.38;;;15.87;66.15
6778;BME280;3426;52.244;10.534;2023-03-19T07:33:38;100504.81;;;15.85;64.87
6778;BME280;3426;52.244;10.534;2023-03-19T07:36:05;100509.50;;;15.70;65.34
6778;BME280;3426;52.244;10.534;2023-03-19T07:38:32;100518.03;;;15.98;65.09
6778;BME280;3426;52.244;10.534;2023-03-19T07:40:58;100523.50;;;15.85;65.69
6778;BME280;3426;52.244;10.534;2023-03-19T07:43:28;100515.72;;;15.93;64.64
6778;BME280;3426;52.244;10.534;2023-03-19T07:45:55;100523.25;;;15.99;64.69
6778;BME280;3426;52.244;10.534;2023-03-19T07:48:21;100530.72;;;15.60;66.44
6778;BME280;3426;52.244;10.534;2023-03-19T07:50:51;100534.66;;;15.79;66.42
6778;BME280;3426;52.244;10.534;2023-03-19T07:53:18;100534.91;;;15.98;66.09
6778;BME280;3426;52.244;10.534;2023-03-19T07:55:46;100533.84;;;16.12;65.02
6778;BME280;3426;52.244;10.534;2023-03-19T07:58:13;100541.50;;;16.05;65.72
6778;BME280;3426;52.244;10.534;2023-03-19T08:00:40;100538.06;;;16.03;65.60
6778;BME280;3426;52.244;10.534;2023-03-19T08:03:07;100543.28;;;16.16;65.61
6778;BME280;3426;52.244;10.534;2023-03-19T08:05:33;100554.59;;;16.20;65.35
6778;BME280;3426;52.244;10.534;2023-03-19T08:08:00;100558.25;;;16.07;65.46
6778;BME280;3426;52.244;10.534;2023-03-19T08:10:26;100556.16;;;16.22;65.46
6778;BME280;3426;52.244;10.534;2023-03-19T08:12:52;100560.28;;;16.26;64.79
6778;BME280;3426;52.244;10.534;2023-03-19T08:15:20;100567.59;;;16.02;65.92
6778;BME280;3426;52.244;10.534;2023-03-19T08:17:46;100575.22;;;15.84;66.77
6778;BME280;3426;52.244;10.534;2023-03-19T08:20:15;100565.28;;;16.20;65.34
6778;BME280;3426;52.244;10.534;2023-03-19T08:22:42;100570.41;;;16.34;64.68
6778;BME280;3426;52.244;10.534;2023-03-19T08:25:09;100578.16;;;16.14;65.30
6778;BME280;3426;52.244;10.534;2023-03-19T08:27:36;100584.69;;;15.99;65.77
6778;BME280;3426;52.244;10.534;2023-03-19T08:30:05;100588.22;;;16.33;64.85
6778;BME280;3426;52.244;10.534;2023-03-19T08:32:32;100591.00;;;16.54;64.33
6778;BME280;3426;52.244;10.534;2023-03-19T08:34:59;100592.50;;;16.47;64.72
6778;BME280;3426;52.244;10.534;2023-03-19T08:37:26;100587.25;;;16.01;67.43
6778;BME280;3426;52.244;10.534;2023-03-19T08:39:53;100597.06;;;15.78;69.32
6778;BME280;3426;52.244;10.534;2023-03-19T08:42:20;100609.84;;;16.08;68.22
6778;BME280;3426;52.244;10.534;2023-03-19T08:44:47;100606.56;;;16.15;67.83
6778;BME280;3426;52.244;10.534;2023-03-19T08:47:14;100612.44;;;15.74;69.81
6778;BME280;3426;52.244;10.534;2023-03-19T08:49:41;100614.34;;;15.37;69.78
6778;BME280;3426;52.244;10.534;2023-03-19T08:52:07;100614.78;;;15.31;71.79
6778;BME280;3426;52.244;10.534;2023-03-19T08:54:34;100604.47;;;15.02;72.34
6778;BME280;3426;52.244;10.534;2023-03-19T08:57:01;100606.25;;;15.15;73.31
6778;BME280;3426;52.244;10.534;2023-03-19T08:59:27;100596.50;;;15.26;71.60
6778;BME280;3426;52.244;10.534;2023-03-19T09:01:56;100592.94;;;15.50;70.64
6778;BME280;3426;52.244;10.534;2023-03-19T09:04:23;100591.47;;;15.46;69.87
6778;BME280;3426;52.244;10.534;2023-03-19T09:06:49;100587.91;;;15.10;72.23
6778;BME280;3426;52.244;10.534;2023-03-19T09:09:18;100575.94;;;14.42;74.31
6778;BME280;3426;52.244;10.534;2023-03-19T09:11:45;100580.00;;;15.32;72.13
6778;BME280;3426;52.244;10.534;2023-03-19T09:14:12;100560.84;;;15.62;71.64
6778;BME280;3426;52.244;10.534;2023-03-19T09:16:39;100568.66;;;15.99;72.05
6778;BME280;3426;52.244;10.534;2023-03-19T09:19:05;100559.72;;;16.23;71.20
6778;BME280;3426;52.244;10.534;2023-03-19T09:21:32;100551.53;;;16.58;69.78
6778;BME280;3426;52.244;10.534;2023-03-19T09:23:59;100552.03;;;16.40;69.50
6778;BME280;3426;52.244;10.534;2023-03-19T09:26:25;100549.16;;;17.30;67.49
6778;BME280;3426;52.244;10.534;2023-03-19T09:28:52;100549.03;;;17.73;69.10
6778;BME280;3426;52.244;10.534;2023-03-19T09:31:18;100549.16;;;17.93;69.20
6778;BME280;3426;52.244;10.534;2023-03-19T09:33:45;100538.44;;;18.23;65.12
6778;BME280;3426;52.244;10.534;2023-03-19T09:36:11;100541.75;;;18.46;65.36
6778;BME280;3426;52.244;10.534;2023-03-19T09:38:38;100534.09;;;18.72;63.54
6778;BME280;3426;52.244;10.534;2023-03-19T09:41:15;100539.91;;;19.16;62.41
6778;BME280;3426;52.244;10.534;2023-03-19T09:44:10;100547.53;;;19.11;57.75
6778;BME280;3426;52.244;10.534;2023-03-19T09:46:44;100537.84;;;18.20;61.13
6778;BME280;3426;52.244;10.534;2023-03-19T09:51:49;100536.66;;;19.03;61.23
6778;BME280;3426;52.244;10.534;2023-03-19T09:54:32;100537.19;;;19.55;59.29
6778;BME280;3426;52.244;10.534;2023-03-19T09:57:03;100546.41;;;19.33;56.44
6778;BME280;3426;52.244;10.534;2023-03-19T09:59:30;100550.94;;;19.13;56.54
6778;BME280;3426;52.244;10.534;2023-03-19T10:10:32;100541.56;;;19.56;58.65
6778;BME280;3426;52.244;10.534;2023-03-19T10:16:00;100539.94;;;19.06;60.83
6778;BME280;3426;52.244;10.534;2023-03-19T10:18:36;100549.94;;;18.14;59.58
6778;BME280;3426;52.244;10.534;2023-03-19T10:21:10;100543.84;;;19.51;58.64
6778;BME280;3426;52.244;10.534;2023-03-19T10:23:49;100546.13;;;19.17;58.63
6778;BME280;3426;52.244;10.534;2023-03-19T10:26:20;100543.31;;;19.18;60.09
6778;BME280;3426;52.244;10.534;2023-03-19T10:31:41;100544.38;;;18.67;60.09
6778;BME280;3426;52.244;10.534;2023-03-19T10:36:35;100541.59;;;18.98;58.72
6778;BME280;3426;52.244;10.534;2023-03-19T10:39:03;100537.75;;;18.81;59.04
6778;BME280;3426;52.244;10.534;2023-03-19T10:44:49;100537.94;;;18.49;59.73
6778;BME280;3426;52.244;10.534;2023-03-19T10:47:17;100539.13;;;18.25;61.15
6778;BME280;3426;52.244;10.534;2023-03-19T10:49:45;100542.88;;;18.44;59.73
6778;BME280;3426;52.244;10.534;2023-03-19T10:52:21;100543.84;;;18.73;59.31
6778;BME280;3426;52.244;10.534;2023-03-19T10:54:54;100541.59;;;19.37;57.84
6778;BME280;3426;52.244;10.534;2023-03-19T10:57:26;100533.69;;;19.35;56.85
6778;BME280;3426;52.244;10.534;2023-03-19T10:59:53;100542.88;;;19.32;55.28
6778;BME280;3426;52.244;10.534;2023-03-19T11:02:23;100536.38;;;19.16;59.46
6778;BME280;3426;52.244;10.534;2023-03-19T11:07:39;100539.19;;;19.53;56.01
6778;BME280;3426;52.244;10.534;2023-03-19T11:10:13;100535.97;;;19.30;52.13
6778;BME280;3426;52.244;10.534;2023-03-19T11:12:46;100539.34;;;19.22;51.16
6778;BME280;3426;52.244;10.534;2023-03-19T11:15:22;100535.81;;;19.12;52.36
6778;BME280;3426;52.244;10.534;2023-03-19T11:17:56;100545.84;;;19.49;50.42
6778;BME280;3426;52.244;10.534;2023-03-19T11:20:28;100540.09;;;19.91;50.55
6778;BME280;3426;52.244;10.534;2023-03-19T11:22:55;100539.09;;;20.01;50.24
6778;BME280;3426;52.244;10.534;2023-03-19T11:28:12;100542.16;;;19.69;50.89
6778;BME280;3426;52.244;10.534;2023-03-19T11:30:45;100547.25;;;19.53;53.79
6778;BME280;3426;52.244;10.534;2023-03-19T11:38:53;100540.94;;;20.01;53.02
6778;BME280;3426;52.244;10.534;2023-03-19T11:41:34;100538.63;;;20.16;50.16
6778;BME280;3426;52.244;10.534;2023-03-19T11:44:15;100530.72;;;20.14;51.05
6778;BME280;3426;52.244;10.534;2023-03-19T11:52:40;100524.16;;;20.54;51.58
6778;BME280;3426;52.244;10.534;2023-03-19T11:58:17;100520.44;;;20.82;51.55
6778;BME280;3426;52.244;10.534;2023-03-19T12:00:55;100524.84;;;20.56;47.79
6778;BME280;3426;52.244;10.534;2023-03-19T12:08:38;100523.78;;;20.49;51.02
6778;BME280;3426;52.244;10.534;2023-03-19T12:11:22;100518.88;;;20.62;48.96
6778;BME280;3426;52.244;10.534;2023-03-19T12:20:05;100523.13;;;20.27;50.10
6778;BME280;3426;52.244;10.534;2023-03-19T12:30:37;100514.34;;;20.98;47.58
6778;BME280;3426;52.244;10.534;2023-03-19T12:35:40;100510.88;;;20.70;48.29
6778;BME280;3426;52.244;10.534;2023-03-19T12:41:10;100513.28;;;20.91;47.33
6778;BME280;3426;52.244;10.534;2023-03-19T12:48:50;100506.19;;;20.72;49.06
6778;BME280;3426;52.244;10.534;2023-03-19T12:51:20;100506.44;;;20.97;49.15
6778;BME280;3426;52.244;10.534;2023-03-19T12:53:57;100509.75;;;20.90;50.27
6778;BME280;3426;52.244;10.534;2023-03-19T12:56:51;100507.66;;;20.84;47.32
6778;BME280;3426;52.244;10.534;2023-03-19T12:59:47;100509.50;;;21.37;46.78
6778;BME280;3426;52.244;10.534;2023-03-19T13:02:46;100506.66;;;21.03;48.22
6778;BME280;3426;52.244;10.534;2023-03-19T13:05:44;100507.22;;;20.71;48.04
6778;BME280;3426;52.244;10.534;2023-03-19T13:11:20;100501.94;;;20.52;48.36
6778;BME280;3426;52.244;10.534;2023-03-19T13:16:32;100501.22;;;20.77;48.35
6778;BME280;3426;52.244;10.534;2023-03-19T13:21:51;100503.41;;;20.64;48.67
6778;BME280;3426;52.244;10.534;2023-03-19T13:24:30;100500.53;;;20.48;49.27
6778;BME280;3426;52.244;10.534;2023-03-19T13:33:27;100498.63;;;20.30;47.70
6778;BME280;3426;52.244;10.534;2023-03-19T13:36:00;100498.25;;;20.25;47.34
6778;BME280;3426;52.244;10.534;2023-03-19T13:38:58;100501.91;;;19.40;49.51
6778;BME280;3426;52.244;10.534;2023-03-19T13:47:01;100504.03;;;18.98;48.64
6778;BME280;3426;52.244;10.534;2023-03-19T13:49:33;100504.03;;;18.98;47.71
6778;BME280;3426;52.244;10.534;2023-03-19T13:55:18;100497.75;;;19.65;47.38
6778;BME280;3426;52.244;10.534;2023-03-19T14:03:58;100495.09;;;19.46;46.65
6778;BME280;3426;52.244;10.534;2023-03-19T14:07:08;100489.41;;;20.05;46.76
6778;BME280;3426;52.244;10.534;2023-03-19T14:09:45;100495.19;;;19.73;46.91
6778;BME280;3426;52.244;10.534;2023-03-19T14:17:59;100490.72;;;19.25;47.77
6778;BME280;3426;52.244;10.534;2023-03-19T14:20:50;100489.22;;;20.44;45.39
6778;BME280;3426;52.244;10.534;2023-03-19T14:23:56;100490.41;;;20.04;47.13
6778;BME280;3426;52.244;10.534;2023-03-19T14:30:58;100491.59;;;19.26;47.87
6778;BME280;3426;52.244;10.534;2023-03-19T14:33:29;100490.59;;;19.37;47.67
6778;BME280;3426;52.244;10.534;2023-03-19T14:35:58;100490.03;;;19.90;46.95
6778;BME280;3426;52.244;10.534;2023-03-19T14:38:34;100499.28;;;18.51;50.56
6778;BME280;3426;52.244;10.534;2023-03-19T14:41:03;100500.75;;;18.15;53.75
6778;BME280;3426;52.244;10.534;2023-03-19T14:47:02;100520.75;;;17.60;63.92
6778;BME280;3426;52.244;10.534;2023-03-19T14:52:22;100504.66;;;18.51;59.81
6778;BME280;3426;52.244;10.534;2023-03-19T14:54:50;100504.56;;;18.82;60.11
6778;BME280;3426;52.244;10.534;2023-03-19T14:57:21;100514.25;;;18.44;61.34
6778;BME280;3426;52.244;10.534;2023-03-19T14:59:52;100509.22;;;17.69;60.33
6778;BME280;3426;52.244;10.534;2023-03-19T15:02:45;100512.09;;;18.38;62.95
6778;BME280;3426;52.244;10.534;2023-03-19T15:05:31;100512.28;;;18.66;60.12
6778;BME280;3426;52.244;10.534;2023-03-19T15:08:02;100514.00;;;18.67;61.29
6778;BME280;3426;52.244;10.534;2023-03-19T15:18:38;100513.03;;;18.77;55.22
6778;BME280;3426;52.244;10.534;2023-03-19T15:21:05;100512.78;;;19.10;55.88
6778;BME280;3426;52.244;10.534;2023-03-19T15:23:32;100508.56;;;19.07;53.89
6778;BME280;3426;52.244;10.534;2023-03-19T15:26:01;100505.13;;;19.34;53.69
6778;BME280;3426;52.244;10.534;2023-03-19T15:28:30;100505.16;;;19.24;54.90